Aeroporto :
LOGIN :

Iscrizione | Disclaimer

   EN    FR    IT 

 










Sommario :    VFR   VFR Marginale   IFR   IFR Intensivo   IFR Molto Intensivo
Visibilità : 
Base nubi : 
>= 8 km
>= 3000ft
5 / 8 km
1000 / 3000 ft
1500m / 5 km
500 / 1000 ft
800 / 1500m
200 / 500 ft
< 800m
< 200 ft
Simboli :   Temporali  Nebbia  Neve Forte  Precipitazioni Forti  Vento > 20 kt
SIGMETs :   Varie  Temporali  Ghiacco  Turbolenza  Onda orograficha  Ceneri Vulcaniche






- Altitudine del aeroporto : 640 ft
- Codice IATA : AOC


EDAC - Altenburg-Nobitz

ULTIMO METAR :
  • 270220Z AUTO 23009KT 9999 // BKN025/// BKN033/// OVC053/// 02/M00 Q1004

METARs OBSOLETI :
  • 270150Z AUTO 24011KT 9999 // FEW012/// BKN022/// OVC058/// 02/M00 Q1004
  • 270120Z AUTO 24010KT 9999 // FEW021/// BKN026/// OVC041/// 02/00 Q1004
  • 270050Z AUTO 25010KT 9999 // SCT020/// OVC048/// 03/M00 Q1004
  • 270020Z AUTO 24009KT 9999 // FEW019/// BKN023/// OVC046/// 02/00 Q1003
  • 262350Z AUTO 24010KT 9999 // FEW022/// BKN051/// 02/00 Q1003

Previsioni scadute.



MetMap, La meteo Aeronautica in un colpo d'occhio ! - Copyright ORBIFLY Dicembre 2007 - Disclaimer

ORBIFLY MET'MAP TEAM :

Programmazione e sviluppo : Alexandra Zaïnal
Concezione : Baudouin d'Aumeries
Aiuto per la programmazione : Marc-Olivier Méhu
Supporto tecnico e logistico : Manuel Goepfert
Aiuto per la traduzione : Arnaldo La Scala

Contatto : metmap@orbifly.com




FONTI E CREDITI :

   NOAA